Time;durP1;ratioP1;P1;durP2;ratioP2;P2;SDS_P1;SDS_P2;PMS_P1;PMS_P2;Temp;Humidity;BMP_temperature;BMP_pressure;BME280_temperature;BME280_humidity;BME280_pressure;Samples;Min_cycle;Max_cycle;Signal;HPM_P1;HPM_P2
2023/11/25 00:01:43;;;;;;;1.23;1.07;;;;;;;1.07;100.00;96057.97;6205430;28;20200;-51
2023/11/25 00:04:45;;;;;;;2.07;0.80;;;;;;;1.09;100.00;96049.91;6203927;28;20575;-53
2023/11/25 00:07:47;;;;;;;2.00;1.10;;;;;;;1.05;100.00;96044.31;6207214;28;20200;-51
2023/11/25 00:10:50;;;;;;;3.13;1.20;;;;;;;1.16;100.00;96038.28;6187871;28;20203;-48
2023/11/25 00:13:52;;;;;;;3.10;1.13;;;;;;;1.16;100.00;96009.44;6209306;28;20188;-49
2023/11/25 00:16:54;;;;;;;0.70;0.70;;;;;;;1.08;100.00;96017.63;6204313;28;20688;-48
2023/11/25 00:20:00;;;;;;;1.03;0.73;;;;;;;1.01;100.00;96019.53;6205224;28;20200;-48
2023/11/25 00:23:03;;;;;;;3.47;1.30;;;;;;;0.93;100.00;96009.34;6199491;28;20599;-49
2023/11/25 00:26:05;;;;;;;2.57;1.13;;;;;;;0.81;100.00;96011.94;6189527;28;20204;-49
2023/11/25 00:29:08;;;;;;;1.70;1.10;;;;;;;0.94;100.00;96022.25;6214893;28;20219;-50
2023/11/25 00:32:11;;;;;;;3.10;1.67;;;;;;;0.89;100.00;96008.22;6196670;28;20236;-52
2023/11/25 00:35:14;;;;;;;1.00;0.90;;;;;;;0.96;100.00;96008.91;6220896;28;20201;-48
2023/11/25 00:38:17;;;;;;;1.20;0.97;;;;;;;1.01;100.00;96003.81;6215389;28;20661;-48
2023/11/25 00:41:20;;;;;;;1.30;0.97;;;;;;;1.16;100.00;95998.16;6221297;28;20189;-49
2023/11/25 00:44:23;;;;;;;1.50;0.90;;;;;;;1.13;100.00;95985.47;6220801;28;20271;-52
2023/11/25 00:47:27;;;;;;;2.47;0.97;;;;;;;1.04;100.00;95985.03;6203449;28;20305;-50
2023/11/25 00:50:29;;;;;;;1.80;1.10;;;;;;;0.93;100.00;95970.03;6203230;28;20200;-47
2023/11/25 00:53:31;;;;;;;0.83;0.80;;;;;;;1.08;100.00;95965.16;6221115;28;20259;-50
2023/11/25 00:56:35;;;;;;;0.70;0.70;;;;;;;0.99;100.00;95969.97;6220512;28;20243;-46
2023/11/25 00:59:37;;;;;;;1.93;0.90;;;;;;;1.04;100.00;95950.94;6220615;28;20193;-48
2023/11/25 01:02:39;;;;;;;0.67;0.67;;;;;;;0.95;100.00;95954.91;6220620;28;20206;-48
2023/11/25 01:05:41;;;;;;;0.63;0.63;;;;;;;0.93;100.00;95943.81;6220246;28;20196;-48
2023/11/25 01:08:44;;;;;;;0.80;0.60;;;;;;;0.91;100.00;95938.81;6220172;28;20870;-49
2023/11/25 01:11:46;;;;;;;0.97;0.70;;;;;;;0.92;100.00;95923.88;6202365;28;20583;-49
2023/11/25 01:14:48;;;;;;;0.70;0.70;;;;;;;1.03;100.00;95913.44;6220465;28;20537;-49
2023/11/25 01:17:51;;;;;;;0.80;0.80;;;;;;;1.06;100.00;95893.81;6202422;28;20212;-52
2023/11/25 01:20:55;;;;;;;2.40;0.90;;;;;;;1.09;100.00;95910.94;6216602;28;20209;-48
2023/11/25 01:23:58;;;;;;;0.97;0.80;;;;;;;1.15;100.00;95902.94;6218822;28;20343;-45
2023/11/25 01:27:00;;;;;;;1.43;0.93;;;;;;;1.22;100.00;95906.25;6202210;28;20224;-46
2023/11/25 01:30:06;;;;;;;1.57;1.00;;;;;;;1.09;100.00;95877.63;6217841;28;20262;-48
2023/11/25 01:33:09;;;;;;;1.40;1.13;;;;;;;1.14;100.00;95869.91;6190357;28;20264;-46
2023/11/25 01:36:11;;;;;;;1.83;1.17;;;;;;;1.16;100.00;95896.69;6193500;28;20205;-48
2023/11/25 01:39:13;;;;;;;0.90;0.90;;;;;;;0.97;100.00;95895.97;6190690;28;20701;-49
2023/11/25 01:42:17;;;;;;;1.53;1.43;;;;;;;1.21;100.00;95906.50;6187538;28;20197;-49
2023/11/25 01:45:19;;;;;;;1.60;1.47;;;;;;;1.14;100.00;95903.19;6187207;28;20296;-50
2023/11/25 01:48:26;;;;;;;2.50;1.90;;;;;;;1.23;100.00;95918.38;6191130;28;20215;-50
2023/11/25 01:51:29;;;;;;;1.63;1.40;;;;;;;1.14;100.00;95916.31;6161757;28;20198;-47
2023/11/25 01:54:31;;;;;;;1.67;1.33;;;;;;;1.00;100.00;95910.44;6176307;28;20287;-51
2023/11/25 01:57:36;;;;;;;2.57;2.10;;;;;;;1.19;100.00;95932.16;6190203;28;20746;-49
2023/11/25 02:00:39;;;;;;;1.53;1.40;;;;;;;1.23;100.00;95926.25;6160594;28;20209;-49
2023/11/25 02:03:41;;;;;;;2.13;1.40;;;;;;;1.19;100.00;95914.59;6175340;28;20938;-49
2023/11/25 02:06:44;;;;;;;7.27;1.47;;;;;;;1.11;100.00;95906.25;6177792;28;20243;-46
2023/11/25 02:09:47;;;;;;;2.70;1.53;;;;;;;0.99;100.00;95919.34;6190537;28;20993;-48
2023/11/25 02:12:49;;;;;;;1.87;1.20;;;;;;;0.86;100.00;95930.81;6188600;28;20703;-49
2023/11/25 02:15:51;;;;;;;1.47;1.23;;;;;;;0.99;100.00;95927.22;6164523;28;20735;-47
2023/11/25 02:18:53;;;;;;;1.43;1.23;;;;;;;1.09;100.00;95903.88;6171315;28;20202;-48
2023/11/25 02:21:55;;;;;;;1.10;1.00;;;;;;;1.17;100.00;95937.59;6185597;28;20209;-51
2023/11/25 02:24:59;;;;;;;1.40;1.30;;;;;;;1.11;100.00;95932.47;6178774;28;20194;-47
2023/11/25 02:28:01;;;;;;;1.67;1.00;;;;;;;1.01;100.00;95933.03;6180872;28;20205;-48
2023/11/25 02:31:04;;;;;;;1.33;1.07;;;;;;;0.92;100.00;95924.66;6180431;28;20210;-48
2023/11/25 02:34:09;;;;;;;1.43;1.20;;;;;;;0.74;100.00;95914.25;6193907;28;20709;-47
2023/11/25 02:37:13;;;;;;;1.23;1.13;;;;;;;0.76;100.00;95896.47;6193719;28;20273;-48
2023/11/25 02:40:18;;;;;;;1.33;1.20;;;;;;;0.78;100.00;95902.28;6176294;28;20336;-46
2023/11/25 02:43:21;;;;;;;1.70;1.33;;;;;;;0.93;100.00;95914.97;6193473;28;20197;-51
2023/11/25 02:46:24;;;;;;;2.53;1.20;;;;;;;1.06;100.00;95927.09;6194075;28;20201;-49
2023/11/25 02:49:26;;;;;;;2.70;1.30;;;;;;;0.96;100.00;95938.94;6192694;28;20275;-48
2023/11/25 02:52:29;;;;;;;1.50;1.30;;;;;;;0.83;100.00;95931.25;6193829;28;20196;-46
2023/11/25 02:55:31;;;;;;;1.33;1.20;;;;;;;1.06;100.00;95912.16;6176154;28;20263;-45
2023/11/25 02:58:33;;;;;;;3.63;1.47;;;;;;;1.04;100.00;95937.81;6191427;28;20677;-51
2023/11/25 03:01:39;;;;;;;1.53;1.00;;;;;;;1.20;99.50;95921.44;6176049;28;20244;-47
2023/11/25 03:04:47;;;;;;;1.63;1.43;;;;;;;1.14;99.83;95932.84;6193250;28;20274;-49
2023/11/25 03:07:50;;;;;;;2.43;1.60;;;;;;;1.13;99.76;95925.97;6193291;28;20216;-49
2023/11/25 03:10:52;;;;;;;2.23;1.67;;;;;;;1.10;99.75;95923.81;6193601;28;20216;-48
2023/11/25 03:13:54;;;;;;;2.47;1.10;;;;;;;0.91;100.00;95902.09;6171235;28;20213;-47
2023/11/25 03:16:57;;;;;;;2.20;1.13;;;;;;;1.06;100.00;95935.75;6176062;28;20202;-47
2023/11/25 03:19:59;;;;;;;2.77;1.30;;;;;;;1.26;97.18;95935.47;6192602;28;20279;-47
2023/11/25 03:23:03;;;;;;;1.77;1.40;;;;;;;1.30;97.59;95936.63;6193525;28;20858;-47
2023/11/25 03:26:05;;;;;;;1.97;1.07;;;;;;;1.11;99.83;95942.97;6174942;28;20226;-48
2023/11/25 03:29:07;;;;;;;1.47;1.37;;;;;;;1.56;96.26;95959.00;6174194;28;20229;-49
2023/11/25 03:32:11;;;;;;;1.80;1.60;;;;;;;1.35;97.59;95952.47;6181525;28;20768;-48
2023/11/25 03:35:14;;;;;;;1.53;1.17;;;;;;;1.21;99.04;95951.88;6216110;28;20330;-52
2023/11/25 03:38:16;;;;;;;2.70;1.43;;;;;;;1.18;98.36;95967.25;6216759;28;20201;-50
2023/11/25 03:41:19;;;;;;;3.17;1.57;;;;;;;1.45;94.86;95959.78;6216737;28;20268;-49
2023/11/25 03:44:21;;;;;;;3.53;1.00;;;;;;;1.52;93.83;95958.63;6217675;28;20201;-50
2023/11/25 03:47:24;;;;;;;3.20;1.20;;;;;;;1.46;93.88;95941.19;6217654;28;20302;-48
2023/11/25 03:50:27;;;;;;;2.50;1.13;;;;;;;1.25;96.30;95962.72;6217534;28;20201;-50
2023/11/25 03:53:30;;;;;;;1.30;1.07;;;;;;;1.45;94.00;95970.28;6217682;28;20212;-48
2023/11/25 03:56:32;;;;;;;3.43;1.30;;;;;;;1.53;92.52;95968.13;6217051;28;20210;-50
2023/11/25 03:59:34;;;;;;;1.70;0.90;;;;;;;1.36;94.10;95964.56;6215742;28;20204;-48
2023/11/25 04:02:36;;;;;;;1.13;0.90;;;;;;;1.45;93.00;95967.66;6218176;28;20200;-49
2023/11/25 04:05:39;;;;;;;1.00;0.90;;;;;;;1.66;91.42;95992.56;6224107;28;20212;-49
2023/11/25 04:08:41;;;;;;;1.03;0.90;;;;;;;1.64;92.52;95994.63;6223477;28;20256;-51
2023/11/25 04:11:43;;;;;;;2.50;0.80;;;;;;;1.71;91.60;95988.22;6221910;28;20726;-50
2023/11/25 04:14:45;;;;;;;2.20;0.90;;;;;;;1.70;90.91;95970.88;6220911;28;20275;-51
2023/11/25 04:17:48;;;;;;;1.00;0.70;;;;;;;1.47;92.59;95974.25;6221732;28;20649;-48
2023/11/25 04:20:50;;;;;;;2.13;1.00;;;;;;;1.54;94.27;96000.41;6220365;28;20251;-52
2023/11/25 04:23:55;;;;;;;1.90;0.80;;;;;;;1.63;93.07;95999.06;6220644;28;20184;-49
2023/11/25 04:26:57;;;;;;;2.33;1.10;;;;;;;1.57;93.69;96007.03;6221390;28;20205;-51
2023/11/25 04:29:59;;;;;;;0.70;0.60;;;;;;;1.39;96.01;96005.31;6218851;28;20216;-46
2023/11/25 04:33:01;;;;;;;1.40;0.70;;;;;;;1.18;95.67;95967.25;6221296;28;20601;-50
2023/11/25 04:36:04;;;;;;;1.73;1.00;;;;;;;1.28;97.44;96001.59;6220497;28;20197;-51
2023/11/25 04:39:07;;;;;;;1.50;0.70;;;;;;;1.40;95.57;96014.75;6221013;28;20193;-47
2023/11/25 04:42:09;;;;;;;0.97;0.80;;;;;;;1.64;93.73;96003.28;6220575;28;20850;-50
2023/11/25 04:45:20;;;;;;;3.27;0.90;;;;;;;1.38;97.58;95998.44;6221167;28;20202;-50
2023/11/25 04:48:22;;;;;;;0.87;0.63;;;;;;;1.09;100.00;95993.03;6221440;28;20689;-51
2023/11/25 04:51:26;;;;;;;1.80;0.70;;;;;;;1.32;98.24;96001.97;6220165;28;20661;-49
2023/11/25 04:54:29;;;;;;;1.30;0.70;;;;;;;1.32;97.30;95997.50;6220748;28;20348;-50
2023/11/25 04:57:31;;;;;;;1.47;0.50;;;;;;;1.35;96.18;96012.81;6219998;28;20195;-50
2023/11/25 05:00:33;;;;;;;0.70;0.60;;;;;;;1.25;97.54;95981.09;6220439;28;20713;-50
2023/11/25 05:03:35;;;;;;;0.40;0.40;;;;;;;1.35;94.48;95985.78;6220182;28;20202;-48
2023/11/25 05:06:38;;;;;;;0.60;0.43;;;;;;;1.32;92.42;95994.88;6220964;28;20190;-51
2023/11/25 05:09:43;;;;;;;0.40;0.40;;;;;;;1.32;93.58;96009.81;6220137;28;20209;-48
2023/11/25 05:12:49;;;;;;;0.70;0.40;;;;;;;1.31;92.63;96019.53;6219639;28;20272;-50
2023/11/25 05:15:53;;;;;;;0.77;0.50;;;;;;;1.50;91.75;96023.69;6220213;28;20193;-49
2023/11/25 05:18:55;;;;;;;0.77;0.50;;;;;;;1.54;92.42;96027.47;6220394;28;20195;-49
2023/11/25 05:21:57;;;;;;;0.47;0.30;;;;;;;1.67;90.44;96008.06;6220019;28;20192;-52
2023/11/25 05:24:59;;;;;;;1.33;0.50;;;;;;;1.55;92.86;96029.06;6219950;28;20200;-52
2023/11/25 05:28:02;;;;;;;1.17;0.30;;;;;;;1.49;93.57;96044.91;6219327;28;20217;-52
2023/11/25 05:31:04;;;;;;;0.60;0.40;;;;;;;1.49;92.53;96013.41;6218612;28;20657;-52
2023/11/25 05:34:07;;;;;;;1.70;0.50;;;;;;;1.45;92.55;96020.94;6217297;28;20607;-56
2023/11/25 05:37:10;;;;;;;0.50;0.40;;;;;;;1.22;90.39;95992.81;6220645;28;20695;-56
2023/11/25 05:40:14;;;;;;;0.40;0.40;;;;;;;1.27;91.35;96027.03;6218274;28;20193;-55
2023/11/25 05:43:18;;;;;;;0.80;0.50;;;;;;;1.41;91.17;96068.81;6220579;28;20196;-55
2023/11/25 05:46:23;;;;;;;1.27;0.67;;;;;;;1.33;92.65;96053.41;6220557;28;20742;-52
2023/11/25 05:49:26;;;;;;;0.83;0.60;;;;;;;1.29;92.73;96095.81;6220603;28;20227;-55
2023/11/25 05:52:29;;;;;;;3.20;0.50;;;;;;;1.39;91.84;96102.38;6217450;28;20197;-52
2023/11/25 05:55:31;;;;;;;2.60;0.60;;;;;;;1.29;93.75;96077.47;6219193;28;20262;-53
2023/11/25 05:58:34;;;;;;;2.10;0.70;;;;;;;1.23;94.56;96101.97;6219361;28;20221;-52
2023/11/25 06:01:40;;;;;;;0.50;0.50;;;;;;;1.09;93.71;96091.88;6219016;28;20685;-55
2023/11/25 06:04:43;;;;;;;0.43;0.40;;;;;;;1.23;95.12;96099.34;6218882;28;20687;-54
2023/11/25 06:07:45;;;;;;;1.33;0.63;;;;;;;1.17;95.77;96144.78;6217390;28;20208;-54
2023/11/25 06:10:50;;;;;;;0.73;0.60;;;;;;;1.21;94.84;96150.41;6219142;28;20289;-54
2023/11/25 06:13:56;;;;;;;0.97;0.50;;;;;;;1.33;92.04;96146.03;6217513;28;20204;-56
2023/11/25 06:17:01;;;;;;;1.03;0.53;;;;;;;1.28;91.39;96177.34;6215551;28;20296;-55
2023/11/25 06:20:05;;;;;;;0.83;0.47;;;;;;;1.29;90.15;96179.78;6218970;28;20223;-55
2023/11/25 06:23:08;;;;;;;0.30;0.30;;;;;;;1.27;89.22;96194.91;6218964;28;20284;-53
2023/11/25 06:26:11;;;;;;;1.37;0.40;;;;;;;1.28;88.25;96195.72;6218416;28;20208;-53
2023/11/25 06:29:16;;;;;;;0.60;0.37;;;;;;;1.29;86.60;96192.88;6215725;28;20223;-53
2023/11/25 06:32:24;;;;;;;0.20;0.20;;;;;;;1.26;85.96;96216.13;6219220;28;20229;-54
2023/11/25 06:35:26;;;;;;;1.53;0.60;;;;;;;1.17;86.53;96217.44;6218913;28;20282;-53
2023/11/25 06:38:29;;;;;;;1.53;0.40;;;;;;;1.03;86.97;96225.44;6218066;28;20770;-52
2023/11/25 06:41:31;;;;;;;1.90;0.60;;;;;;;1.13;85.46;96218.88;6218115;28;20189;-51
2023/11/25 06:44:34;;;;;;;0.50;0.40;;;;;;;1.09;86.52;96234.28;6217544;28;20195;-54
2023/11/25 06:47:38;;;;;;;1.07;0.40;;;;;;;0.99;87.09;96257.56;6217925;28;20219;-55
2023/11/25 06:51:03;;;;;;;2.50;0.40;;;;;;;1.01;86.84;96263.38;6217097;28;20204;-56
2023/11/25 06:54:08;;;;;;;0.77;0.60;;;;;;;1.08;85.26;96245.75;6216428;28;20197;-55
2023/11/25 06:57:10;;;;;;;0.90;0.50;;;;;;;1.21;83.96;96286.78;6218597;28;20193;-55
2023/11/25 07:00:13;;;;;;;0.83;0.30;;;;;;;1.22;81.02;96276.06;6218015;28;20196;-55
2023/11/25 07:03:16;;;;;;;0.40;0.40;;;;;;;1.01;83.83;96279.91;6214707;28;20196;-49
2023/11/25 07:06:19;;;;;;;0.67;0.60;;;;;;;1.08;83.35;96305.28;6217944;28;20212;-57
2023/11/25 07:09:21;;;;;;;0.63;0.47;;;;;;;1.15;82.92;96316.53;6217559;28;20545;-53
2023/11/25 07:12:25;;;;;;;1.13;0.53;;;;;;;1.21;83.36;96332.19;6218132;28;20204;-54
2023/11/25 07:15:27;;;;;;;0.53;0.50;;;;;;;1.19;84.14;96344.72;6218172;28;20663;-54
2023/11/25 07:18:29;;;;;;;1.83;0.33;;;;;;;1.31;80.71;96362.38;6217266;28;20201;-56
2023/11/25 07:21:32;;;;;;;1.57;0.40;;;;;;;1.21;80.57;96358.41;6217880;28;20719;-55
2023/11/25 07:24:39;;;;;;;1.03;0.40;;;;;;;1.20;79.37;96371.75;6217642;28;20211;-55
2023/11/25 07:27:44;;;;;;;1.53;0.50;;;;;;;0.91;79.72;96378.44;6216527;28;20213;-56
2023/11/25 07:30:49;;;;;;;4.70;0.70;;;;;;;0.75;79.61;96371.88;6213865;28;20200;-55
2023/11/25 07:33:52;;;;;;;0.30;0.30;;;;;;;0.77;79.39;96401.31;6217381;28;20235;-56
2023/11/25 07:36:55;;;;;;;0.50;0.20;;;;;;;0.74;78.25;96414.84;6221468;28;20215;-54
2023/11/25 07:39:58;;;;;;;1.13;0.37;;;;;;;0.62;79.00;96417.31;6220494;28;20196;-53
2023/11/25 07:43:00;;;;;;;1.30;0.40;;;;;;;0.53;79.79;96442.16;6221577;28;20244;-53
2023/11/25 07:46:07;;;;;;;0.20;0.20;;;;;;;0.65;78.10;96448.34;6221799;28;20192;-52
2023/11/25 07:49:11;;;;;;;0.40;0.40;;;;;;;0.52;78.94;96441.34;6224720;28;20299;-50
2023/11/25 07:52:15;;;;;;;1.33;0.30;;;;;;;0.70;75.27;96450.34;6220378;28;20831;-52
2023/11/25 07:55:32;;;;;;;0.97;0.43;;;;;;;0.76;75.95;96450.31;6221469;28;20587;-54
2023/11/25 08:00:25;;;;;;;0.47;0.37;;;;;;;0.78;74.12;96461.38;6221091;28;20197;-55
2023/11/25 08:04:51;;;;;;;0.97;0.50;;;;;;;0.86;73.20;96464.78;6220533;28;20736;-52
2023/11/25 08:13:47;;;;;;;2.60;0.33;;;;;;;0.84;71.92;96457.13;6079135;29;20785;-48
2023/11/25 08:17:41;;;;;;;1.27;0.47;;;;;;;0.85;69.63;96453.50;6073352;29;20208;-57
2023/11/25 08:25:44;;;;;;;0.40;0.37;;;;;;;0.75;69.90;96474.91;6069914;29;20200;-53
2023/11/25 08:28:49;;;;;;;2.00;0.33;;;;;;;0.72;74.15;96477.94;6074284;29;20317;-53
2023/11/25 08:31:52;;;;;;;0.97;0.40;;;;;;;0.73;70.50;96478.75;6073086;29;20257;-54
2023/11/25 08:34:54;;;;;;;0.97;0.40;;;;;;;0.90;68.38;96487.75;6074440;29;20227;-53
2023/11/25 08:37:57;;;;;;;1.30;0.40;;;;;;;0.94;70.93;96488.13;6074290;29;20205;-56
2023/11/25 08:40:59;;;;;;;0.30;0.30;;;;;;;0.70;69.04;96442.47;6074515;29;20200;-53
2023/11/25 08:44:01;;;;;;;1.20;0.60;;;;;;;1.09;68.61;96491.28;6073219;29;20216;-54
2023/11/25 08:47:03;;;;;;;0.30;0.27;;;;;;;0.90;70.73;96495.59;6073110;29;20228;-55
2023/11/25 08:50:09;;;;;;;0.30;0.30;;;;;;;0.86;70.83;96491.78;6131216;28;20228;-55
2023/11/25 08:53:11;;;;;;;0.63;0.40;;;;;;;0.95;70.43;96487.91;6163601;28;20194;-55
2023/11/25 08:56:14;;;;;;;1.20;0.40;;;;;;;0.90;73.82;96485.13;6157722;28;20766;-56
2023/11/25 08:59:20;;;;;;;1.57;0.50;;;;;;;0.82;72.88;96490.59;6158430;28;20300;-56
2023/11/25 09:02:25;;;;;;;1.73;0.40;;;;;;;1.06;71.38;96504.78;6160398;28;20345;-55
2023/11/25 09:05:28;;;;;;;1.50;0.40;;;;;;;1.10;71.22;96502.56;6153396;28;20418;-51
2023/11/25 09:08:30;;;;;;;0.73;0.40;;;;;;;1.08;72.43;96510.63;6152591;28;20230;-55
2023/11/25 09:11:34;;;;;;;0.83;0.50;;;;;;;1.14;71.06;96514.25;6163974;28;20443;-55
2023/11/25 09:14:36;;;;;;;0.33;0.33;;;;;;;1.16;74.41;96522.69;6164793;28;20207;-56
2023/11/25 09:17:41;;;;;;;1.43;0.50;;;;;;;0.96;74.25;96520.97;6158387;28;20306;-49
2023/11/25 09:20:43;;;;;;;0.40;0.40;;;;;;;0.64;80.89;96521.91;6155115;28;20635;-53
2023/11/25 09:23:46;;;;;;;1.93;0.50;;;;;;;0.30;84.71;96539.56;6155666;28;20217;-53
2023/11/25 09:26:51;;;;;;;0.73;0.57;;;;;;;0.12;88.06;96550.66;6160915;28;20202;-52
2023/11/25 09:29:53;;;;;;;0.60;0.40;;;;;;;0.01;92.14;96545.25;6159119;28;20362;-55
2023/11/25 09:32:55;;;;;;;2.10;0.53;;;;;;;-0.16;94.32;96540.41;6161529;28;20611;-56
2023/11/25 09:35:59;;;;;;;1.37;0.70;;;;;;;-0.44;98.10;96524.09;6166184;28;20336;-51
2023/11/25 09:39:03;;;;;;;1.83;0.80;;;;;;;-0.52;100.00;96531.16;6159853;28;20216;-55
2023/11/25 09:42:06;;;;;;;1.17;0.57;;;;;;;-0.59;100.00;96526.91;6150461;28;20206;-55
2023/11/25 09:45:09;;;;;;;2.57;0.70;;;;;;;-0.36;100.00;96529.16;6154522;28;20904;-53
2023/11/25 09:48:12;;;;;;;1.50;0.80;;;;;;;-0.45;100.00;96525.91;6155037;28;20214;-55
2023/11/25 09:51:22;;;;;;;0.40;0.40;;;;;;;-0.38;100.00;96521.50;6153475;28;20667;-55
2023/11/25 09:54:25;;;;;;;0.60;0.53;;;;;;;-0.31;100.00;96519.69;6156921;28;20593;-41
2023/11/25 09:57:32;;;;;;;1.47;0.50;;;;;;;-0.24;100.00;96500.59;6158421;28;20290;-42
2023/11/25 10:00:37;;;;;;;0.77;0.60;;;;;;;-0.20;100.00;96486.06;6155463;28;20205;-42
2023/11/25 10:03:45;;;;;;;1.40;0.60;;;;;;;0.02;97.67;96497.13;6205939;28;20219;-42
2023/11/25 10:06:51;;;;;;;1.67;0.73;;;;;;;0.04;95.19;96450.59;6217506;28;20193;-42
2023/11/25 10:09:54;;;;;;;0.50;0.50;;;;;;;0.32;91.16;96487.78;6218631;28;20205;-40
2023/11/25 10:12:56;;;;;;;0.70;0.50;;;;;;;0.23;93.57;96495.03;6218742;28;20197;-45
2023/11/25 10:15:59;;;;;;;1.47;0.80;;;;;;;0.37;89.81;96490.56;6219021;28;20220;-42
2023/11/25 10:19:01;;;;;;;2.20;1.10;;;;;;;0.04;91.25;96458.44;6219094;28;20196;-42
2023/11/25 10:22:03;;;;;;;1.10;0.73;;;;;;;0.33;90.05;96501.66;6218203;28;20193;-44
2023/11/25 10:25:06;;;;;;;3.00;0.70;;;;;;;0.32;90.31;96495.63;6219662;28;20983;-43
2023/11/25 10:28:09;;;;;;;2.33;0.70;;;;;;;0.44;88.58;96496.63;6216947;28;20565;-44
2023/11/25 10:31:16;;;;;;;0.73;0.70;;;;;;;0.49;88.55;96488.09;6218568;28;20193;-42
2023/11/25 10:34:21;;;;;;;2.30;0.63;;;;;;;0.68;85.98;96484.59;6216714;28;20327;-43
2023/11/25 10:37:24;;;;;;;0.67;0.67;;;;;;;0.92;86.03;96477.03;6218431;28;20724;-42
2023/11/25 10:40:27;;;;;;;4.33;1.10;;;;;;;0.94;85.26;96454.06;6219462;28;20232;-43
2023/11/25 10:43:30;;;;;;;1.90;0.80;;;;;;;1.21;81.54;96473.81;6217073;28;20279;-41
2023/11/25 10:46:42;;;;;;;2.37;0.97;;;;;;;0.99;81.00;96414.88;6217034;28;20727;-42
2023/11/25 10:49:45;;;;;;;1.23;0.60;;;;;;;1.31;77.80;96441.06;6217235;28;20346;-42
2023/11/25 10:52:50;;;;;;;0.70;0.50;;;;;;;1.39;76.58;96446.06;6216357;28;20398;-43
2023/11/25 10:55:56;;;;;;;0.90;0.67;;;;;;;1.56;78.82;96449.75;6217443;28;20280;-42
2023/11/25 10:58:59;;;;;;;2.37;0.73;;;;;;;1.57;77.78;96464.47;6216056;28;20631;-41
2023/11/25 11:02:05;;;;;;;0.77;0.60;;;;;;;1.45;78.23;96469.63;6218073;28;20200;-42
2023/11/25 11:05:14;;;;;;;1.27;0.80;;;;;;;1.24;82.08;96472.63;6218513;28;20758;-41
2023/11/25 11:08:22;;;;;;;0.93;0.77;;;;;;;1.08;86.70;96468.66;6218391;28;20563;-43
2023/11/25 11:11:50;;;;;;;1.73;1.07;;;;;;;0.99;90.94;96483.88;6216173;28;20192;-43
2023/11/25 11:15:07;;;;;;;1.53;0.80;;;;;;;0.89;91.36;96461.75;6217606;28;20196;-42
2023/11/25 11:18:23;;;;;;;3.33;0.80;;;;;;;0.91;90.35;96464.94;6216205;28;20335;-42
2023/11/25 11:21:31;;;;;;;2.20;1.07;;;;;;;1.02;87.98;96448.53;6215269;28;20203;-44
2023/11/25 11:24:46;;;;;;;1.77;0.77;;;;;;;1.10;86.25;96457.97;6216880;28;20193;-42
2023/11/25 11:28:24;;;;;;;3.33;0.70;;;;;;;1.16;86.26;96454.50;6214590;28;20219;-43
2023/11/25 11:31:59;;;;;;;3.47;0.90;;;;;;;1.13;85.11;96433.94;6218186;28;20201;-42
2023/11/25 11:35:03;;;;;;;2.93;0.90;;;;;;;0.90;86.22;96432.69;6215395;28;20235;-41
2023/11/25 11:38:26;;;;;;;0.93;0.60;;;;;;;0.84;86.91;96446.66;6216801;28;20327;-42
2023/11/25 11:41:29;;;;;;;2.70;0.70;;;;;;;0.85;86.94;96431.72;6217424;28;20205;-43
2023/11/25 11:44:34;;;;;;;2.07;0.70;;;;;;;1.02;87.58;96425.72;6216904;28;20618;-43
2023/11/25 11:47:38;;;;;;;1.90;0.90;;;;;;;0.95;86.11;96437.28;6215739;28;20505;-43
2023/11/25 11:50:42;;;;;;;1.57;0.87;;;;;;;0.72;89.64;96440.44;6217142;28;20888;-44
2023/11/25 11:53:44;;;;;;;1.73;0.73;;;;;;;0.57;94.20;96443.34;6213662;28;20272;-42
2023/11/25 11:57:07;;;;;;;1.70;0.90;;;;;;;0.50;97.05;96458.31;6216729;28;20188;-42
2023/11/25 12:00:15;;;;;;;1.97;1.00;;;;;;;0.32;100.00;96456.34;6216547;28;20549;-43
2023/11/25 12:03:18;;;;;;;2.23;1.00;;;;;;;0.19;100.00;96459.78;6215502;28;20189;-42
2023/11/25 12:06:22;;;;;;;1.40;1.00;;;;;;;0.19;100.00;96464.22;6214848;28;20262;-42
2023/11/25 12:09:25;;;;;;;2.87;1.33;;;;;;;0.11;100.00;96448.78;6214241;28;20598;-43
2023/11/25 12:12:30;;;;;;;2.13;1.30;;;;;;;-0.06;100.00;96451.00;6216941;28;20204;-42
2023/11/25 12:15:33;;;;;;;2.40;1.50;;;;;;;-0.15;100.00;96445.19;6215239;28;20552;-42
2023/11/25 12:18:36;;;;;;;1.90;1.13;;;;;;;0.07;100.00;96434.47;6216992;28;20615;-42
2023/11/25 12:21:38;;;;;;;4.93;1.50;;;;;;;0.07;100.00;96448.38;6216859;28;20208;-43
2023/11/25 12:24:41;;;;;;;4.90;1.43;;;;;;;0.35;100.00;96447.28;6220893;28;20193;-42
2023/11/25 12:27:50;;;;;;;1.13;1.03;;;;;;;0.33;100.00;96465.81;6220206;28;20207;-41
2023/11/25 12:30:52;;;;;;;3.80;1.20;;;;;;;0.43;100.00;96449.66;6217855;28;20223;-42
2023/11/25 12:33:57;;;;;;;1.90;0.97;;;;;;;0.52;100.00;96454.44;6204759;28;20298;-42
2023/11/25 12:37:00;;;;;;;2.40;1.30;;;;;;;0.54;98.54;96456.84;6199432;28;20212;-43
2023/11/25 12:40:23;;;;;;;2.57;1.23;;;;;;;0.58;99.22;96450.19;6200831;28;20224;-43
2023/11/25 12:43:25;;;;;;;2.80;1.17;;;;;;;0.53;98.44;96460.47;6199230;28;20248;-43
2023/11/25 12:46:27;;;;;;;1.73;1.03;;;;;;;0.52;98.69;96467.53;6197739;28;20621;-42
2023/11/25 12:49:31;;;;;;;1.00;0.80;;;;;;;0.35;100.00;96476.91;6196853;28;20577;-43
2023/11/25 12:52:34;;;;;;;1.77;1.27;;;;;;;0.32;100.00;96484.34;6198400;28;20198;-43
2023/11/25 12:55:38;;;;;;;3.40;1.60;;;;;;;0.11;100.00;96443.53;6199613;28;20733;-42
2023/11/25 12:58:44;;;;;;;4.10;1.63;;;;;;;0.19;100.00;96485.97;6203904;28;20661;-42
2023/11/25 13:01:46;;;;;;;1.10;0.83;;;;;;;0.31;100.00;96482.75;6202644;28;20189;-43
2023/11/25 13:04:49;;;;;;;3.27;1.17;;;;;;;0.36;100.00;96475.88;6204079;28;20582;-42
2023/11/25 13:07:52;;;;;;;3.50;1.10;;;;;;;0.20;100.00;96482.38;6205940;28;20596;-43
2023/11/25 13:10:57;;;;;;;1.20;0.87;;;;;;;0.18;100.00;96479.16;6186580;28;20222;-43
2023/11/25 13:14:00;;;;;;;2.57;1.67;;;;;;;0.42;100.00;96480.28;6200752;28;20198;-42
2023/11/25 13:17:05;;;;;;;2.70;1.23;;;;;;;0.36;100.00;96490.78;6195236;28;20208;-41
2023/11/25 13:20:11;;;;;;;5.00;1.20;;;;;;;0.21;100.00;96506.75;6180293;28;20232;-45
2023/11/25 13:23:14;;;;;;;2.53;1.13;;;;;;;0.16;100.00;96496.88;6198454;28;20203;-43
2023/11/25 13:26:17;;;;;;;3.33;1.50;;;;;;;0.03;100.00;96515.22;6201009;28;20192;-48
2023/11/25 13:29:19;;;;;;;2.77;1.63;;;;;;;-0.11;100.00;96516.25;6200295;28;20275;-45
2023/11/25 13:32:21;;;;;;;1.30;1.00;;;;;;;-0.16;100.00;96527.31;6199050;28;20229;-43
2023/11/25 13:35:24;;;;;;;4.67;1.37;;;;;;;-0.22;100.00;96529.97;6195160;28;20567;-43
2023/11/25 13:38:26;;;;;;;4.40;1.67;;;;;;;-0.28;100.00;96532.38;6177650;28;20555;-44
2023/11/25 13:41:28;;;;;;;3.50;1.40;;;;;;;-0.31;100.00;96532.75;6195391;28;20205;-43
2023/11/25 13:44:31;;;;;;;3.10;1.60;;;;;;;-0.27;100.00;96525.31;6194668;28;20194;-43
2023/11/25 13:47:34;;;;;;;3.73;1.50;;;;;;;-0.22;100.00;96538.59;6195338;28;20190;-45
2023/11/25 13:50:37;;;;;;;2.03;1.40;;;;;;;-0.23;100.00;96507.41;6194158;28;20232;-42
2023/11/25 13:53:40;;;;;;;2.17;1.30;;;;;;;-0.07;100.00;96539.22;6192206;28;20281;-44
2023/11/25 13:56:42;;;;;;;3.20;1.33;;;;;;;0.12;100.00;96524.50;6194578;28;20668;-44
2023/11/25 13:59:44;;;;;;;5.13;1.23;;;;;;;0.14;100.00;96527.69;6194723;28;20594;-45
2023/11/25 14:02:46;;;;;;;2.93;1.73;;;;;;;0.13;100.00;96522.66;6194325;28;20648;-45
2023/11/25 14:05:49;;;;;;;3.80;1.20;;;;;;;0.24;100.00;96522.03;6193813;28;20654;-45
2023/11/25 14:08:52;;;;;;;1.73;1.13;;;;;;;0.08;100.00;96520.66;6194438;28;20201;-44
2023/11/25 14:11:54;;;;;;;2.23;1.20;;;;;;;0.11;100.00;96535.97;6193967;28;20288;-46
2023/11/25 14:14:58;;;;;;;2.20;1.10;;;;;;;0.24;99.74;96522.84;6194058;28;20570;-46
2023/11/25 14:18:01;;;;;;;4.17;1.03;;;;;;;0.37;98.46;96527.25;6194046;28;20205;-44
2023/11/25 14:21:03;;;;;;;2.00;1.10;;;;;;;0.48;94.38;96531.84;6194029;28;20613;-44
2023/11/25 14:24:06;;;;;;;1.43;0.87;;;;;;;0.44;95.29;96519.38;6177705;28;20701;-43
2023/11/25 14:27:08;;;;;;;1.13;1.03;;;;;;;0.28;98.56;96517.19;6193677;28;20229;-43
2023/11/25 14:30:11;;;;;;;1.57;0.60;;;;;;;0.20;98.66;96520.84;6192516;28;20716;-42
2023/11/25 14:33:13;;;;;;;2.10;1.10;;;;;;;0.28;98.10;96523.25;6196526;28;20323;-43
2023/11/25 14:36:17;;;;;;;1.90;1.00;;;;;;;-0.14;98.12;96470.38;6198921;28;20219;-42
2023/11/25 14:39:19;;;;;;;2.33;0.90;;;;;;;0.24;95.21;96532.50;6181454;28;20202;-44
2023/11/25 14:42:23;;;;;;;2.63;1.33;;;;;;;0.29;95.68;96524.84;6199102;28;20548;-43
2023/11/25 14:45:26;;;;;;;4.23;1.10;;;;;;;0.45;91.59;96518.38;6193671;28;20217;-43
2023/11/25 14:48:28;;;;;;;3.73;1.00;;;;;;;0.28;96.31;96525.84;6195060;28;20192;-42